sensor_id;sensor_type;location;lat;lon;timestamp;temperature;humidity
3308;DHT22;1666;48.898;9.182;2023-05-19T00:01:20;11.30;1.00
3308;DHT22;1666;48.898;9.182;2023-05-19T00:03:52;11.30;1.00
3308;DHT22;1666;48.898;9.182;2023-05-19T00:06:25;11.20;1.00
3308;DHT22;1666;48.898;9.182;2023-05-19T00:08:59;11.20;1.00
3308;DHT22;1666;48.898;9.182;2023-05-19T00:11:32;11.10;1.00
3308;DHT22;1666;48.898;9.182;2023-05-19T00:14:04;11.10;1.00
3308;DHT22;1666;48.898;9.182;2023-05-19T00:16:36;11.10;1.00
3308;DHT22;1666;48.898;9.182;2023-05-19T00:19:08;11.10;1.00
3308;DHT22;1666;48.898;9.182;2023-05-19T00:21:38;11.10;1.00
3308;DHT22;1666;48.898;9.182;2023-05-19T00:24:08;11.10;1.00
3308;DHT22;1666;48.898;9.182;2023-05-19T00:26:41;11.10;1.00
3308;DHT22;1666;48.898;9.182;2023-05-19T00:29:11;11.10;1.00
3308;DHT22;1666;48.898;9.182;2023-05-19T00:31:44;11.00;1.00
3308;DHT22;1666;48.898;9.182;2023-05-19T00:34:14;10.90;1.00
3308;DHT22;1666;48.898;9.182;2023-05-19T00:36:44;11.00;1.00
3308;DHT22;1666;48.898;9.182;2023-05-19T00:39:14;11.00;1.00
3308;DHT22;1666;48.898;9.182;2023-05-19T00:41:47;10.90;1.00
3308;DHT22;1666;48.898;9.182;2023-05-19T00:44:16;10.90;1.00
3308;DHT22;1666;48.898;9.182;2023-05-19T00:46:46;10.90;1.00
3308;DHT22;1666;48.898;9.182;2023-05-19T00:49:16;11.00;1.00
3308;DHT22;1666;48.898;9.182;2023-05-19T00:51:46;10.90;1.00
3308;DHT22;1666;48.898;9.182;2023-05-19T00:54:17;10.90;1.00
3308;DHT22;1666;48.898;9.182;2023-05-19T00:56:52;10.80;1.00
3308;DHT22;1666;48.898;9.182;2023-05-19T00:59:24;10.80;1.00
3308;DHT22;1666;48.898;9.182;2023-05-19T01:01:54;10.80;1.00
3308;DHT22;1666;48.898;9.182;2023-05-19T01:04:24;10.70;1.00
3308;DHT22;1666;48.898;9.182;2023-05-19T01:06:55;10.70;1.00
3308;DHT22;1666;48.898;9.182;2023-05-19T01:09:26;10.70;1.00
3308;DHT22;1666;48.898;9.182;2023-05-19T01:11:59;10.60;1.00
3308;DHT22;1666;48.898;9.182;2023-05-19T01:14:30;10.60;1.00
3308;DHT22;1666;48.898;9.182;2023-05-19T01:17:05;10.60;1.00
3308;DHT22;1666;48.898;9.182;2023-05-19T01:19:52;10.60;1.00
3308;DHT22;1666;48.898;9.182;2023-05-19T01:22:51;10.60;1.00
3308;DHT22;1666;48.898;9.182;2023-05-19T01:25:41;10.60;1.00
3308;DHT22;1666;48.898;9.182;2023-05-19T01:31:36;10.50;1.00
3308;DHT22;1666;48.898;9.182;2023-05-19T01:34:06;10.50;1.00
3308;DHT22;1666;48.898;9.182;2023-05-19T01:36:39;10.50;1.00
3308;DHT22;1666;48.898;9.182;2023-05-19T01:39:10;10.50;1.00
3308;DHT22;1666;48.898;9.182;2023-05-19T01:41:43;10.50;1.00
3308;DHT22;1666;48.898;9.182;2023-05-19T01:44:14;10.50;1.00
3308;DHT22;1666;48.898;9.182;2023-05-19T01:46:47;10.50;1.00
3308;DHT22;1666;48.898;9.182;2023-05-19T01:49:18;10.40;1.00
3308;DHT22;1666;48.898;9.182;2023-05-19T01:51:48;10.40;1.00
3308;DHT22;1666;48.898;9.182;2023-05-19T01:54:18;10.40;1.00
3308;DHT22;1666;48.898;9.182;2023-05-19T01:56:53;10.50;1.00
3308;DHT22;1666;48.898;9.182;2023-05-19T01:59:36;10.50;1.00
3308;DHT22;1666;48.898;9.182;2023-05-19T02:02:21;10.50;1.00
3308;DHT22;1666;48.898;9.182;2023-05-19T02:04:58;10.50;1.00
3308;DHT22;1666;48.898;9.182;2023-05-19T02:07:40;10.60;1.00
3308;DHT22;1666;48.898;9.182;2023-05-19T02:10:19;10.60;1.00
3308;DHT22;1666;48.898;9.182;2023-05-19T02:12:52;10.50;1.00
3308;DHT22;1666;48.898;9.182;2023-05-19T02:15:24;10.50;1.00
3308;DHT22;1666;48.898;9.182;2023-05-19T02:18:00;10.50;1.00
3308;DHT22;1666;48.898;9.182;2023-05-19T02:20:31;10.30;1.00
3308;DHT22;1666;48.898;9.182;2023-05-19T02:23:01;10.20;1.00
3308;DHT22;1666;48.898;9.182;2023-05-19T02:25:31;10.20;1.00
3308;DHT22;1666;48.898;9.182;2023-05-19T02:28:01;10.10;1.00
3308;DHT22;1666;48.898;9.182;2023-05-19T02:30:32;10.20;1.00
3308;DHT22;1666;48.898;9.182;2023-05-19T02:33:05;10.20;1.00
3308;DHT22;1666;48.898;9.182;2023-05-19T02:35:37;10.30;1.00
3308;DHT22;1666;48.898;9.182;2023-05-19T02:38:07;10.20;1.00
3308;DHT22;1666;48.898;9.182;2023-05-19T02:40:37;10.20;1.00
3308;DHT22;1666;48.898;9.182;2023-05-19T02:43:07;10.00;1.00
3308;DHT22;1666;48.898;9.182;2023-05-19T02:45:37;9.90;1.00
3308;DHT22;1666;48.898;9.182;2023-05-19T02:48:09;9.90;1.00
3308;DHT22;1666;48.898;9.182;2023-05-19T02:50:39;9.90;1.00
3308;DHT22;1666;48.898;9.182;2023-05-19T02:53:09;9.90;1.00
3308;DHT22;1666;48.898;9.182;2023-05-19T02:55:39;9.80;1.00
3308;DHT22;1666;48.898;9.182;2023-05-19T02:58:09;9.90;1.00
3308;DHT22;1666;48.898;9.182;2023-05-19T03:00:39;9.90;1.00
3308;DHT22;1666;48.898;9.182;2023-05-19T03:03:13;9.90;1.00
3308;DHT22;1666;48.898;9.182;2023-05-19T03:05:44;9.90;1.00
3308;DHT22;1666;48.898;9.182;2023-05-19T03:08:14;10.00;1.00
3308;DHT22;1666;48.898;9.182;2023-05-19T03:10:44;10.00;1.00
3308;DHT22;1666;48.898;9.182;2023-05-19T03:13:14;9.90;1.00
3308;DHT22;1666;48.898;9.182;2023-05-19T03:15:45;9.90;1.00
3308;DHT22;1666;48.898;9.182;2023-05-19T03:18:22;9.90;1.00
3308;DHT22;1666;48.898;9.182;2023-05-19T03:20:52;9.80;1.00
3308;DHT22;1666;48.898;9.182;2023-05-19T03:23:22;9.80;1.00
3308;DHT22;1666;48.898;9.182;2023-05-19T03:25:53;9.80;1.00
3308;DHT22;1666;48.898;9.182;2023-05-19T03:28:23;9.70;1.00
3308;DHT22;1666;48.898;9.182;2023-05-19T03:30:53;9.70;1.00
3308;DHT22;1666;48.898;9.182;2023-05-19T03:33:25;9.70;1.00
3308;DHT22;1666;48.898;9.182;2023-05-19T03:35:56;9.70;1.00
3308;DHT22;1666;48.898;9.182;2023-05-19T03:38:26;9.70;1.00
3308;DHT22;1666;48.898;9.182;2023-05-19T03:40:56;9.60;1.00
3308;DHT22;1666;48.898;9.182;2023-05-19T03:43:26;9.60;1.00
3308;DHT22;1666;48.898;9.182;2023-05-19T03:45:56;9.60;1.00
3308;DHT22;1666;48.898;9.182;2023-05-19T03:48:30;9.60;1.00
3308;DHT22;1666;48.898;9.182;2023-05-19T03:51:00;9.60;1.00
3308;DHT22;1666;48.898;9.182;2023-05-19T03:53:30;9.50;1.00
3308;DHT22;1666;48.898;9.182;2023-05-19T03:56:00;9.50;1.00
3308;DHT22;1666;48.898;9.182;2023-05-19T03:58:30;9.40;1.00
3308;DHT22;1666;48.898;9.182;2023-05-19T04:01:00;9.40;1.00
3308;DHT22;1666;48.898;9.182;2023-05-19T04:03:32;9.30;1.00
3308;DHT22;1666;48.898;9.182;2023-05-19T04:06:03;9.40;1.00
3308;DHT22;1666;48.898;9.182;2023-05-19T04:08:33;9.40;1.00
3308;DHT22;1666;48.898;9.182;2023-05-19T04:11:03;9.50;1.00
3308;DHT22;1666;48.898;9.182;2023-05-19T04:13:33;9.50;1.00
3308;DHT22;1666;48.898;9.182;2023-05-19T04:16:04;9.50;1.00
3308;DHT22;1666;48.898;9.182;2023-05-19T04:18:36;9.50;1.00
3308;DHT22;1666;48.898;9.182;2023-05-19T04:21:06;9.40;1.00
3308;DHT22;1666;48.898;9.182;2023-05-19T04:23:36;9.50;1.00
3308;DHT22;1666;48.898;9.182;2023-05-19T04:26:06;9.50;1.00
3308;DHT22;1666;48.898;9.182;2023-05-19T04:28:36;9.60;1.00
3308;DHT22;1666;48.898;9.182;2023-05-19T04:31:08;9.60;1.00
3308;DHT22;1666;48.898;9.182;2023-05-19T04:33:41;9.60;1.00
3308;DHT22;1666;48.898;9.182;2023-05-19T04:36:12;9.50;1.00
3308;DHT22;1666;48.898;9.182;2023-05-19T04:38:44;9.50;1.00
3308;DHT22;1666;48.898;9.182;2023-05-19T04:41:14;9.70;1.00
3308;DHT22;1666;48.898;9.182;2023-05-19T04:43:44;9.90;1.00
3308;DHT22;1666;48.898;9.182;2023-05-19T04:46:14;10.00;1.00
3308;DHT22;1666;48.898;9.182;2023-05-19T04:48:47;10.20;1.00
3308;DHT22;1666;48.898;9.182;2023-05-19T04:51:17;10.40;1.00
3308;DHT22;1666;48.898;9.182;2023-05-19T04:53:47;10.60;1.00
3308;DHT22;1666;48.898;9.182;2023-05-19T04:56:17;10.80;1.00
3308;DHT22;1666;48.898;9.182;2023-05-19T04:58:48;10.90;1.00
3308;DHT22;1666;48.898;9.182;2023-05-19T05:01:19;10.80;1.00
3308;DHT22;1666;48.898;9.182;2023-05-19T05:03:55;11.00;1.00
3308;DHT22;1666;48.898;9.182;2023-05-19T05:06:25;11.10;1.00
3308;DHT22;1666;48.898;9.182;2023-05-19T05:08:55;11.30;1.00
3308;DHT22;1666;48.898;9.182;2023-05-19T05:11:26;11.70;1.00
3308;DHT22;1666;48.898;9.182;2023-05-19T05:13:57;11.80;1.00
3308;DHT22;1666;48.898;9.182;2023-05-19T05:16:27;11.80;1.00
3308;DHT22;1666;48.898;9.182;2023-05-19T05:19:01;12.80;1.00
3308;DHT22;1666;48.898;9.182;2023-05-19T05:21:32;13.20;1.00
3308;DHT22;1666;48.898;9.182;2023-05-19T05:24:02;13.20;1.00
3308;DHT22;1666;48.898;9.182;2023-05-19T05:26:33;13.10;1.00
3308;DHT22;1666;48.898;9.182;2023-05-19T05:29:03;13.40;1.00
3308;DHT22;1666;48.898;9.182;2023-05-19T05:31:33;12.50;1.00
3308;DHT22;1666;48.898;9.182;2023-05-19T05:34:06;13.40;1.00
3308;DHT22;1666;48.898;9.182;2023-05-19T05:36:36;14.10;1.00
3308;DHT22;1666;48.898;9.182;2023-05-19T05:39:06;13.20;1.00
3308;DHT22;1666;48.898;9.182;2023-05-19T05:41:36;13.60;1.00
3308;DHT22;1666;48.898;9.182;2023-05-19T05:44:06;14.20;1.00
3308;DHT22;1666;48.898;9.182;2023-05-19T05:46:36;14.20;1.00
3308;DHT22;1666;48.898;9.182;2023-05-19T05:49:09;14.60;1.00
3308;DHT22;1666;48.898;9.182;2023-05-19T05:51:40;14.70;1.00
3308;DHT22;1666;48.898;9.182;2023-05-19T05:54:28;14.40;1.00
3308;DHT22;1666;48.898;9.182;2023-05-19T05:56:58;13.40;1.00
3308;DHT22;1666;48.898;9.182;2023-05-19T05:59:29;13.20;1.00
3308;DHT22;1666;48.898;9.182;2023-05-19T06:02:00;13.00;1.00
3308;DHT22;1666;48.898;9.182;2023-05-19T06:04:32;13.10;1.00
3308;DHT22;1666;48.898;9.182;2023-05-19T06:07:02;13.20;1.00
3308;DHT22;1666;48.898;9.182;2023-05-19T06:09:32;13.50;1.00
3308;DHT22;1666;48.898;9.182;2023-05-19T06:12:04;14.20;1.00
3308;DHT22;1666;48.898;9.182;2023-05-19T06:14:34;14.70;1.00
3308;DHT22;1666;48.898;9.182;2023-05-19T06:17:04;14.70;1.00
3308;DHT22;1666;48.898;9.182;2023-05-19T06:19:36;15.20;1.00
3308;DHT22;1666;48.898;9.182;2023-05-19T06:22:06;14.90;1.00
3308;DHT22;1666;48.898;9.182;2023-05-19T06:24:36;14.60;1.00
3308;DHT22;1666;48.898;9.182;2023-05-19T06:27:06;14.70;1.00
3308;DHT22;1666;48.898;9.182;2023-05-19T06:29:36;14.40;1.00
3308;DHT22;1666;48.898;9.182;2023-05-19T06:32:06;14.90;1.00
3308;DHT22;1666;48.898;9.182;2023-05-19T06:34:38;15.80;1.00
3308;DHT22;1666;48.898;9.182;2023-05-19T06:37:09;15.10;1.00
3308;DHT22;1666;48.898;9.182;2023-05-19T06:39:40;14.50;1.00
3308;DHT22;1666;48.898;9.182;2023-05-19T06:42:10;14.50;1.00
3308;DHT22;1666;48.898;9.182;2023-05-19T06:44:40;14.40;1.00
3308;DHT22;1666;48.898;9.182;2023-05-19T06:47:10;14.40;1.00
3308;DHT22;1666;48.898;9.182;2023-05-19T06:49:43;14.60;1.00
3308;DHT22;1666;48.898;9.182;2023-05-19T06:52:16;14.20;1.00
3308;DHT22;1666;48.898;9.182;2023-05-19T06:54:46;13.80;1.00
3308;DHT22;1666;48.898;9.182;2023-05-19T06:57:16;13.40;1.00
3308;DHT22;1666;48.898;9.182;2023-05-19T06:59:46;13.60;1.00
3308;DHT22;1666;48.898;9.182;2023-05-19T07:02:17;13.80;1.00
3308;DHT22;1666;48.898;9.182;2023-05-19T07:04:49;13.80;1.00
3308;DHT22;1666;48.898;9.182;2023-05-19T07:07:19;14.20;1.00
3308;DHT22;1666;48.898;9.182;2023-05-19T07:09:49;14.40;1.00
3308;DHT22;1666;48.898;9.182;2023-05-19T07:12:19;14.40;1.00
3308;DHT22;1666;48.898;9.182;2023-05-19T07:14:52;14.60;1.00
3308;DHT22;1666;48.898;9.182;2023-05-19T07:17:22;14.30;1.00
3308;DHT22;1666;48.898;9.182;2023-05-19T07:19:54;14.50;1.00
3308;DHT22;1666;48.898;9.182;2023-05-19T07:22:24;14.20;1.00
3308;DHT22;1666;48.898;9.182;2023-05-19T07:24:54;14.30;1.00
3308;DHT22;1666;48.898;9.182;2023-05-19T07:27:24;14.40;1.00
3308;DHT22;1666;48.898;9.182;2023-05-19T07:29:54;14.40;1.00
3308;DHT22;1666;48.898;9.182;2023-05-19T07:32:24;14.20;1.00
3308;DHT22;1666;48.898;9.182;2023-05-19T07:34:57;14.10;1.00
3308;DHT22;1666;48.898;9.182;2023-05-19T07:37:27;14.10;1.00
3308;DHT22;1666;48.898;9.182;2023-05-19T07:39:57;14.30;1.00
3308;DHT22;1666;48.898;9.182;2023-05-19T07:42:27;14.10;1.00
3308;DHT22;1666;48.898;9.182;2023-05-19T07:44:57;14.20;1.00
3308;DHT22;1666;48.898;9.182;2023-05-19T07:47:28;14.20;1.00
3308;DHT22;1666;48.898;9.182;2023-05-19T07:50:01;14.20;1.00
3308;DHT22;1666;48.898;9.182;2023-05-19T07:52:31;14.20;1.00
3308;DHT22;1666;48.898;9.182;2023-05-19T07:55:01;14.20;1.00
3308;DHT22;1666;48.898;9.182;2023-05-19T07:57:31;14.20;1.00
3308;DHT22;1666;48.898;9.182;2023-05-19T08:00:01;14.00;1.00
3308;DHT22;1666;48.898;9.182;2023-05-19T08:02:33;14.40;1.00
3308;DHT22;1666;48.898;9.182;2023-05-19T08:05:07;14.50;1.00
3308;DHT22;1666;48.898;9.182;2023-05-19T08:07:37;14.60;1.00
3308;DHT22;1666;48.898;9.182;2023-05-19T08:10:08;14.70;1.00
3308;DHT22;1666;48.898;9.182;2023-05-19T08:12:38;14.90;1.00
3308;DHT22;1666;48.898;9.182;2023-05-19T08:15:08;15.10;1.00
3308;DHT22;1666;48.898;9.182;2023-05-19T08:17:39;15.00;1.00
3308;DHT22;1666;48.898;9.182;2023-05-19T08:20:12;14.80;1.00
3308;DHT22;1666;48.898;9.182;2023-05-19T08:22:42;14.50;1.00
3308;DHT22;1666;48.898;9.182;2023-05-19T08:25:12;14.50;1.00
3308;DHT22;1666;48.898;9.182;2023-05-19T08:27:42;14.70;1.00
3308;DHT22;1666;48.898;9.182;2023-05-19T08:30:12;14.70;1.00
3308;DHT22;1666;48.898;9.182;2023-05-19T08:32:42;14.30;1.00
3308;DHT22;1666;48.898;9.182;2023-05-19T08:35:15;14.20;1.00
3308;DHT22;1666;48.898;9.182;2023-05-19T08:37:45;14.20;1.00
3308;DHT22;1666;48.898;9.182;2023-05-19T08:40:16;14.10;1.00
3308;DHT22;1666;48.898;9.182;2023-05-19T08:42:47;14.30;1.00
3308;DHT22;1666;48.898;9.182;2023-05-19T08:45:17;14.10;1.00
3308;DHT22;1666;48.898;9.182;2023-05-19T08:47:48;14.20;1.00
3308;DHT22;1666;48.898;9.182;2023-05-19T08:50:25;14.30;1.00
3308;DHT22;1666;48.898;9.182;2023-05-19T08:53:01;14.30;1.00
3308;DHT22;1666;48.898;9.182;2023-05-19T08:55:35;14.30;1.00
3308;DHT22;1666;48.898;9.182;2023-05-19T08:58:10;14.20;1.00
3308;DHT22;1666;48.898;9.182;2023-05-19T09:00:43;14.30;1.00
3308;DHT22;1666;48.898;9.182;2023-05-19T09:03:14;14.20;1.00
3308;DHT22;1666;48.898;9.182;2023-05-19T09:05:51;14.10;1.00
3308;DHT22;1666;48.898;9.182;2023-05-19T09:08:21;14.10;1.00
3308;DHT22;1666;48.898;9.182;2023-05-19T09:10:51;14.30;1.00
3308;DHT22;1666;48.898;9.182;2023-05-19T09:13:21;14.20;1.00
3308;DHT22;1666;48.898;9.182;2023-05-19T09:15:52;14.30;1.00
3308;DHT22;1666;48.898;9.182;2023-05-19T09:18:23;14.20;1.00
3308;DHT22;1666;48.898;9.182;2023-05-19T09:20:58;14.20;1.00
3308;DHT22;1666;48.898;9.182;2023-05-19T09:23:30;14.60;1.00
3308;DHT22;1666;48.898;9.182;2023-05-19T09:26:02;14.50;1.00
3308;DHT22;1666;48.898;9.182;2023-05-19T09:28:35;14.50;1.00
3308;DHT22;1666;48.898;9.182;2023-05-19T09:31:06;14.20;1.00
3308;DHT22;1666;48.898;9.182;2023-05-19T09:33:38;14.30;1.00
3308;DHT22;1666;48.898;9.182;2023-05-19T09:36:14;14.40;1.00
3308;DHT22;1666;48.898;9.182;2023-05-19T09:38:44;14.40;1.00
3308;DHT22;1666;48.898;9.182;2023-05-19T09:41:15;14.60;1.00
3308;DHT22;1666;48.898;9.182;2023-05-19T09:43:53;14.70;1.00
3308;DHT22;1666;48.898;9.182;2023-05-19T09:46:24;14.80;1.00
3308;DHT22;1666;48.898;9.182;2023-05-19T09:48:56;14.70;1.00
3308;DHT22;1666;48.898;9.182;2023-05-19T09:51:29;14.80;1.00
3308;DHT22;1666;48.898;9.182;2023-05-19T09:53:59;14.60;1.00
3308;DHT22;1666;48.898;9.182;2023-05-19T09:56:33;14.60;1.00
3308;DHT22;1666;48.898;9.182;2023-05-19T09:59:03;14.60;1.00
3308;DHT22;1666;48.898;9.182;2023-05-19T10:01:33;14.70;1.00
3308;DHT22;1666;48.898;9.182;2023-05-19T10:04:06;14.90;1.00
3308;DHT22;1666;48.898;9.182;2023-05-19T10:06:43;15.00;1.00
3308;DHT22;1666;48.898;9.182;2023-05-19T10:09:14;15.00;1.00
3308;DHT22;1666;48.898;9.182;2023-05-19T10:11:44;14.90;1.00
3308;DHT22;1666;48.898;9.182;2023-05-19T10:14:15;14.90;1.00
3308;DHT22;1666;48.898;9.182;2023-05-19T10:16:53;15.00;1.00
3308;DHT22;1666;48.898;9.182;2023-05-19T10:19:25;15.10;1.00
3308;DHT22;1666;48.898;9.182;2023-05-19T10:21:58;15.20;1.00
3308;DHT22;1666;48.898;9.182;2023-05-19T10:24:28;15.10;1.00
3308;DHT22;1666;48.898;9.182;2023-05-19T10:27:02;15.10;1.00
3308;DHT22;1666;48.898;9.182;2023-05-19T10:29:36;15.20;1.00
3308;DHT22;1666;48.898;9.182;2023-05-19T10:32:11;15.20;1.00
3308;DHT22;1666;48.898;9.182;2023-05-19T10:35:02;15.40;1.00
3308;DHT22;1666;48.898;9.182;2023-05-19T10:37:44;15.50;1.00
3308;DHT22;1666;48.898;9.182;2023-05-19T10:40:20;15.50;1.00
3308;DHT22;1666;48.898;9.182;2023-05-19T10:43:01;15.10;1.00
3308;DHT22;1666;48.898;9.182;2023-05-19T10:45:46;15.10;1.00
3308;DHT22;1666;48.898;9.182;2023-05-19T10:48:19;15.00;1.00
3308;DHT22;1666;48.898;9.182;2023-05-19T10:50:52;15.10;1.00
3308;DHT22;1666;48.898;9.182;2023-05-19T10:53:30;15.20;1.00
3308;DHT22;1666;48.898;9.182;2023-05-19T10:56:01;15.20;1.00
3308;DHT22;1666;48.898;9.182;2023-05-19T10:58:38;15.30;1.00
3308;DHT22;1666;48.898;9.182;2023-05-19T11:01:08;15.50;1.00
3308;DHT22;1666;48.898;9.182;2023-05-19T11:03:46;15.40;1.00
3308;DHT22;1666;48.898;9.182;2023-05-19T11:06:24;15.30;1.00
3308;DHT22;1666;48.898;9.182;2023-05-19T11:08:59;15.30;1.00
3308;DHT22;1666;48.898;9.182;2023-05-19T11:11:44;15.40;1.00
3308;DHT22;1666;48.898;9.182;2023-05-19T11:14:17;15.40;1.00
3308;DHT22;1666;48.898;9.182;2023-05-19T11:16:48;15.50;1.00
3308;DHT22;1666;48.898;9.182;2023-05-19T11:19:19;15.50;1.00
3308;DHT22;1666;48.898;9.182;2023-05-19T11:21:54;15.60;1.00
3308;DHT22;1666;48.898;9.182;2023-05-19T11:24:44;15.50;1.00
3308;DHT22;1666;48.898;9.182;2023-05-19T11:27:24;15.50;1.00
3308;DHT22;1666;48.898;9.182;2023-05-19T11:29:55;15.50;1.00
3308;DHT22;1666;48.898;9.182;2023-05-19T11:32:29;15.50;1.00
3308;DHT22;1666;48.898;9.182;2023-05-19T11:35:00;15.60;1.00
3308;DHT22;1666;48.898;9.182;2023-05-19T11:37:31;15.50;1.00
3308;DHT22;1666;48.898;9.182;2023-05-19T11:40:05;15.50;1.00
3308;DHT22;1666;48.898;9.182;2023-05-19T11:42:35;15.60;1.00
3308;DHT22;1666;48.898;9.182;2023-05-19T11:45:07;15.70;1.00
3308;DHT22;1666;48.898;9.182;2023-05-19T11:47:37;15.70;1.00
3308;DHT22;1666;48.898;9.182;2023-05-19T11:50:27;15.60;1.00
3308;DHT22;1666;48.898;9.182;2023-05-19T11:52:59;15.70;1.00
3308;DHT22;1666;48.898;9.182;2023-05-19T11:55:32;15.70;1.00
3308;DHT22;1666;48.898;9.182;2023-05-19T11:58:03;15.90;1.00
3308;DHT22;1666;48.898;9.182;2023-05-19T12:00:35;16.10;1.00
3308;DHT22;1666;48.898;9.182;2023-05-19T12:03:07;16.40;1.00
3308;DHT22;1666;48.898;9.182;2023-05-19T12:05:42;16.60;1.00
3308;DHT22;1666;48.898;9.182;2023-05-19T12:08:15;16.30;1.00
3308;DHT22;1666;48.898;9.182;2023-05-19T12:10:51;16.20;1.00
3308;DHT22;1666;48.898;9.182;2023-05-19T12:13:22;15.90;1.00
3308;DHT22;1666;48.898;9.182;2023-05-19T12:15:52;15.80;1.00
3308;DHT22;1666;48.898;9.182;2023-05-19T12:18:22;15.80;1.00
3308;DHT22;1666;48.898;9.182;2023-05-19T12:20:52;15.80;1.00
3308;DHT22;1666;48.898;9.182;2023-05-19T12:23:22;15.80;1.00
3308;DHT22;1666;48.898;9.182;2023-05-19T12:25:56;15.80;1.00
3308;DHT22;1666;48.898;9.182;2023-05-19T12:28:29;15.80;1.00
3308;DHT22;1666;48.898;9.182;2023-05-19T12:30:59;16.00;1.00
3308;DHT22;1666;48.898;9.182;2023-05-19T12:33:31;15.70;1.00
3308;DHT22;1666;48.898;9.182;2023-05-19T12:36:02;15.80;1.00
3308;DHT22;1666;48.898;9.182;2023-05-19T12:38:33;15.60;1.00
3308;DHT22;1666;48.898;9.182;2023-05-19T12:41:06;15.20;1.00
3308;DHT22;1666;48.898;9.182;2023-05-19T12:43:36;15.50;1.00
3308;DHT22;1666;48.898;9.182;2023-05-19T12:46:09;15.50;1.00
3308;DHT22;1666;48.898;9.182;2023-05-19T12:48:40;15.60;1.00
3308;DHT22;1666;48.898;9.182;2023-05-19T12:51:14;15.60;1.00
3308;DHT22;1666;48.898;9.182;2023-05-19T12:53:45;15.40;1.00
3308;DHT22;1666;48.898;9.182;2023-05-19T12:56:17;15.50;1.00
3308;DHT22;1666;48.898;9.182;2023-05-19T12:58:52;15.30;1.00
3308;DHT22;1666;48.898;9.182;2023-05-19T13:01:23;15.40;1.00
3308;DHT22;1666;48.898;9.182;2023-05-19T13:03:53;15.80;1.00
3308;DHT22;1666;48.898;9.182;2023-05-19T13:06:23;15.70;1.00
3308;DHT22;1666;48.898;9.182;2023-05-19T13:08:53;15.80;1.00
3308;DHT22;1666;48.898;9.182;2023-05-19T13:11:25;15.60;1.00
3308;DHT22;1666;48.898;9.182;2023-05-19T13:13:55;15.40;1.00
3308;DHT22;1666;48.898;9.182;2023-05-19T13:16:26;15.30;1.00
3308;DHT22;1666;48.898;9.182;2023-05-19T13:18:56;15.30;1.00
3308;DHT22;1666;48.898;9.182;2023-05-19T13:21:27;15.50;1.00
3308;DHT22;1666;48.898;9.182;2023-05-19T13:23:57;15.50;1.00
3308;DHT22;1666;48.898;9.182;2023-05-19T13:26:30;15.40;1.00
3308;DHT22;1666;48.898;9.182;2023-05-19T13:29:00;15.40;1.00
3308;DHT22;1666;48.898;9.182;2023-05-19T13:31:30;15.50;1.00
3308;DHT22;1666;48.898;9.182;2023-05-19T13:34:00;15.50;1.00
3308;DHT22;1666;48.898;9.182;2023-05-19T13:36:30;15.80;1.00
3308;DHT22;1666;48.898;9.182;2023-05-19T13:39:02;15.60;1.00
3308;DHT22;1666;48.898;9.182;2023-05-19T13:41:35;15.70;1.00
3308;DHT22;1666;48.898;9.182;2023-05-19T13:44:05;15.80;1.00
3308;DHT22;1666;48.898;9.182;2023-05-19T13:46:35;15.80;1.00
3308;DHT22;1666;48.898;9.182;2023-05-19T13:49:12;16.00;1.00
3308;DHT22;1666;48.898;9.182;2023-05-19T13:51:42;16.00;1.00
3308;DHT22;1666;48.898;9.182;2023-05-19T13:54:12;15.80;1.00
3308;DHT22;1666;48.898;9.182;2023-05-19T13:56:45;15.80;1.00
3308;DHT22;1666;48.898;9.182;2023-05-19T13:59:14;15.90;1.00
3308;DHT22;1666;48.898;9.182;2023-05-19T14:01:45;16.00;1.00
3308;DHT22;1666;48.898;9.182;2023-05-19T14:04:17;16.10;1.00
3308;DHT22;1666;48.898;9.182;2023-05-19T14:06:47;16.00;1.00
3308;DHT22;1666;48.898;9.182;2023-05-19T14:09:17;16.00;1.00
3308;DHT22;1666;48.898;9.182;2023-05-19T14:11:49;15.80;1.00
3308;DHT22;1666;48.898;9.182;2023-05-19T14:14:19;15.90;1.00
3308;DHT22;1666;48.898;9.182;2023-05-19T14:16:49;15.80;1.00
3308;DHT22;1666;48.898;9.182;2023-05-19T14:19:19;15.70;1.00
3308;DHT22;1666;48.898;9.182;2023-05-19T14:21:50;15.60;1.00
3308;DHT22;1666;48.898;9.182;2023-05-19T14:24:20;15.60;1.00
3308;DHT22;1666;48.898;9.182;2023-05-19T14:26:52;15.60;1.00
3308;DHT22;1666;48.898;9.182;2023-05-19T14:29:22;15.70;1.00
3308;DHT22;1666;48.898;9.182;2023-05-19T14:31:52;15.60;1.00
3308;DHT22;1666;48.898;9.182;2023-05-19T14:34:22;15.80;1.00
3308;DHT22;1666;48.898;9.182;2023-05-19T14:36:52;15.80;1.00
3308;DHT22;1666;48.898;9.182;2023-05-19T14:39:22;15.80;1.00
3308;DHT22;1666;48.898;9.182;2023-05-19T14:41:55;15.90;1.00
3308;DHT22;1666;48.898;9.182;2023-05-19T14:44:29;15.80;1.00
3308;DHT22;1666;48.898;9.182;2023-05-19T14:46:59;15.80;1.00
3308;DHT22;1666;48.898;9.182;2023-05-19T14:49:30;15.90;1.00
3308;DHT22;1666;48.898;9.182;2023-05-19T14:52:00;16.00;1.00
3308;DHT22;1666;48.898;9.182;2023-05-19T14:54:29;15.90;1.00
3308;DHT22;1666;48.898;9.182;2023-05-19T14:57:02;16.00;1.00
3308;DHT22;1666;48.898;9.182;2023-05-19T14:59:35;16.10;1.00
3308;DHT22;1666;48.898;9.182;2023-05-19T15:02:06;16.00;1.00
3308;DHT22;1666;48.898;9.182;2023-05-19T15:04:37;16.20;1.00
3308;DHT22;1666;48.898;9.182;2023-05-19T15:07:07;16.30;1.00
3308;DHT22;1666;48.898;9.182;2023-05-19T15:09:37;16.10;1.00
3308;DHT22;1666;48.898;9.182;2023-05-19T15:12:10;16.10;1.00
3308;DHT22;1666;48.898;9.182;2023-05-19T15:14:40;15.90;1.00
3308;DHT22;1666;48.898;9.182;2023-05-19T15:17:10;16.00;1.00
3308;DHT22;1666;48.898;9.182;2023-05-19T15:19:40;16.10;1.00
3308;DHT22;1666;48.898;9.182;2023-05-19T15:22:10;16.10;1.00
3308;DHT22;1666;48.898;9.182;2023-05-19T15:24:40;16.30;1.00
3308;DHT22;1666;48.898;9.182;2023-05-19T15:27:13;16.30;1.00
3308;DHT22;1666;48.898;9.182;2023-05-19T15:29:43;16.30;1.00
3308;DHT22;1666;48.898;9.182;2023-05-19T15:32:13;16.30;1.00
3308;DHT22;1666;48.898;9.182;2023-05-19T15:34:43;16.40;1.00
3308;DHT22;1666;48.898;9.182;2023-05-19T15:37:13;16.30;1.00
3308;DHT22;1666;48.898;9.182;2023-05-19T15:39:43;16.20;1.00
3308;DHT22;1666;48.898;9.182;2023-05-19T15:42:15;16.20;1.00
3308;DHT22;1666;48.898;9.182;2023-05-19T15:44:45;16.30;1.00
3308;DHT22;1666;48.898;9.182;2023-05-19T15:47:15;16.30;1.00
3308;DHT22;1666;48.898;9.182;2023-05-19T15:49:45;16.40;1.00
3308;DHT22;1666;48.898;9.182;2023-05-19T15:52:15;16.50;1.00
3308;DHT22;1666;48.898;9.182;2023-05-19T15:54:45;16.50;1.00
3308;DHT22;1666;48.898;9.182;2023-05-19T15:57:17;16.50;1.00
3308;DHT22;1666;48.898;9.182;2023-05-19T15:59:47;16.60;1.00
3308;DHT22;1666;48.898;9.182;2023-05-19T16:02:17;16.70;1.00
3308;DHT22;1666;48.898;9.182;2023-05-19T16:04:47;16.60;1.00
3308;DHT22;1666;48.898;9.182;2023-05-19T16:07:17;16.60;1.00
3308;DHT22;1666;48.898;9.182;2023-05-19T16:09:49;16.80;1.00
3308;DHT22;1666;48.898;9.182;2023-05-19T16:12:22;17.00;1.00
3308;DHT22;1666;48.898;9.182;2023-05-19T16:14:53;17.10;1.00
3308;DHT22;1666;48.898;9.182;2023-05-19T16:17:23;16.90;1.00
3308;DHT22;1666;48.898;9.182;2023-05-19T16:19:53;17.00;1.00
3308;DHT22;1666;48.898;9.182;2023-05-19T16:22:23;17.00;1.00
3308;DHT22;1666;48.898;9.182;2023-05-19T16:24:53;16.70;1.00
3308;DHT22;1666;48.898;9.182;2023-05-19T16:27:26;16.90;1.00
3308;DHT22;1666;48.898;9.182;2023-05-19T16:29:56;16.80;1.00
3308;DHT22;1666;48.898;9.182;2023-05-19T16:32:27;16.90;1.00
3308;DHT22;1666;48.898;9.182;2023-05-19T16:34:57;16.90;1.00
3308;DHT22;1666;48.898;9.182;2023-05-19T16:37:27;17.10;1.00
3308;DHT22;1666;48.898;9.182;2023-05-19T16:39:57;17.20;1.00
3308;DHT22;1666;48.898;9.182;2023-05-19T16:42:29;17.20;1.00
3308;DHT22;1666;48.898;9.182;2023-05-19T16:44:59;17.00;1.00
3308;DHT22;1666;48.898;9.182;2023-05-19T16:47:29;17.10;1.00
3308;DHT22;1666;48.898;9.182;2023-05-19T16:49:59;17.20;1.00
3308;DHT22;1666;48.898;9.182;2023-05-19T16:52:29;17.20;1.00